Tauranga (NZTG)

Aerodrome — Elev 13
New Zealand
S037.40.18.998 E176.11.46.000
Loading chart...

Current Weather

NZTG 161600Z 12001KT 4800 HZ NCD 08/07 Q1015 RMK AUTO VATSIM USE ONLY

Published 1 days 1 hours 39 minutes ago

Airport Activity

Loading chart...
Loading chart...

Positions

CallsignRadio Name / Freq / Voice Room / TypeFrequencyVoice RoomType
NZCH-B_CTR Bay Approach
119.500
nzch-b_ctr
119.500nzch-b_ctr
NZTG_TWR Tauranga Tower
118.300
nztg_twr
118.300nztg_twr
NZTG_ATIS Tauranga ATIS
126.600
nztg_atis
126.600nztg_atis

Charts